Time;durP1;ratioP1;P1;durP2;ratioP2;P2;SDS_P1;SDS_P2;PMS_P1;PMS_P2;Temp;Humidity;BMP_temperature;BMP_pressure;BME280_temperature;BME280_humidity;BME280_pressure;Samples;Min_cycle;Max_cycle;Signal;HPM_P1;HPM_P2
2022/06/03 00:00:21;;;;;;;9.82;6.10;;;18.90;1.00;;;;;;4804518;29;20038;-88
2022/06/03 00:03:04;;;;;;;8.57;5.47;;;18.90;1.00;;;;;;4850962;29;20073;-89
2022/06/03 00:05:51;;;;;;;9.38;5.70;;;18.80;1.00;;;;;;4860629;29;20150;-88
2022/06/03 00:08:53;;;;;;;9.30;5.55;;;18.90;1.00;;;;;;4859089;29;20374;-89
2022/06/03 00:11:55;;;;;;;8.38;5.90;;;18.80;1.00;;;;;;4860238;29;20415;-89
2022/06/03 00:14:56;;;;;;;7.20;5.93;;;18.70;1.00;;;;;;4861259;29;20042;-89
2022/06/03 00:17:44;;;;;;;6.68;5.85;;;18.70;1.00;;;;;;4925270;29;20543;-88
2022/06/03 00:20:31;;;;;;;9.13;6.20;;;18.70;1.00;;;;;;4902854;29;20055;-89
2022/06/03 00:23:16;;;;;;;7.85;6.10;;;18.70;1.00;;;;;;4915965;29;20147;-90
2022/06/03 00:25:56;;;;;;;7.95;6.03;;;18.70;1.00;;;;;;4917357;29;20523;-87
2022/06/03 00:28:48;;;;;;;8.57;6.65;;;18.70;1.00;;;;;;4917844;29;20028;-89
2022/06/03 00:31:16;;;;;;;7.78;5.97;;;18.50;1.00;;;;;;4902802;29;20165;-88
2022/06/03 00:34:04;;;;;;;7.03;5.93;;;18.60;1.00;;;;;;4942489;28;20035;-88
2022/06/03 00:36:56;;;;;;;11.43;6.57;;;18.60;1.00;;;;;;4968270;28;20042;-89
2022/06/03 00:39:34;;;;;;;7.25;6.25;;;18.60;1.00;;;;;;4936745;29;24694;-88
2022/06/03 00:42:07;;;;;;;8.90;5.65;;;18.50;1.00;;;;;;4968246;28;20495;-88
2022/06/03 00:44:54;;;;;;;9.10;5.85;;;18.40;1.00;;;;;;4958248;28;20510;-89
2022/06/03 00:47:32;;;;;;;8.63;5.55;;;18.40;1.00;;;;;;4956363;28;20095;-89
2022/06/03 00:50:27;;;;;;;9.27;5.50;;;18.30;1.00;;;;;;4940549;29;20518;-88
2022/06/03 00:53:04;;;;;;;8.75;5.55;;;18.30;1.00;;;;;;4875938;29;20198;-89
2022/06/03 00:55:37;;;;;;;6.18;5.53;;;18.50;1.00;;;;;;4858977;29;20546;-88
2022/06/03 00:58:25;;;;;;;7.30;5.50;;;18.50;1.00;;;;;;4859534;29;20037;-89
2022/06/03 01:01:08;;;;;;;6.50;4.90;;;18.50;1.00;;;;;;4877191;29;20052;-89
2022/06/03 01:04:19;;;;;;;6.90;5.10;;;18.30;1.00;;;;;;4862221;29;20129;-89
2022/06/03 01:07:12;;;;;;;6.03;5.10;;;18.40;1.00;;;;;;4876176;29;20077;-89
2022/06/03 01:10:10;;;;;;;7.47;5.07;;;18.30;1.00;;;;;;4862471;29;20041;-89
2022/06/03 01:12:58;;;;;;;8.07;5.07;;;18.00;1.00;;;;;;4862550;29;20516;-88
2022/06/03 01:15:39;;;;;;;6.10;5.07;;;18.20;1.00;;;;;;4869041;29;20063;-88
2022/06/03 01:18:16;;;;;;;7.45;5.32;;;18.10;1.00;;;;;;4873714;29;20033;-88
2022/06/03 01:20:53;;;;;;;7.38;4.90;;;18.30;1.00;;;;;;4858593;29;20498;-89
2022/06/03 01:23:48;;;;;;;6.70;4.82;;;18.40;1.00;;;;;;4869295;29;20088;-88
2022/06/03 01:26:21;;;;;;;10.77;5.13;;;18.40;1.00;;;;;;4876442;29;20153;-89
2022/06/03 01:29:31;;;;;;;6.95;4.72;;;18.50;1.00;;;;;;4863493;29;20514;-89
2022/06/03 01:32:10;;;;;;;5.38;4.78;;;18.50;1.00;;;;;;4892779;29;20036;-89
2022/06/03 01:35:16;;;;;;;7.00;4.63;;;18.60;1.00;;;;;;4905954;29;20040;-89
2022/06/03 01:37:58;;;;;;;7.18;5.18;;;18.60;1.00;;;;;;4856508;29;20037;-89
2022/06/03 01:40:35;;;;;;;7.50;5.03;;;18.70;1.00;;;;;;4859051;29;20042;-89
2022/06/03 01:43:22;;;;;;;6.50;4.65;;;18.70;1.00;;;;;;4860337;29;20038;-89
2022/06/03 01:46:28;;;;;;;5.72;4.38;;;18.70;1.00;;;;;;4862273;29;20029;-88
2022/06/03 01:48:56;;;;;;;8.35;5.13;;;18.60;1.00;;;;;;4786221;29;20051;-89
2022/06/03 01:51:58;;;;;;;5.45;4.53;;;18.50;1.00;;;;;;4770908;29;20091;-89
2022/06/03 01:54:23;;;;;;;6.70;5.05;;;18.30;1.00;;;;;;4780656;29;20051;-89
2022/06/03 01:57:13;;;;;;;5.60;4.57;;;18.30;1.00;;;;;;4787214;29;20053;-89
2022/06/03 01:59:57;;;;;;;7.03;4.90;;;18.20;1.00;;;;;;4787350;29;20043;-89
2022/06/03 02:02:47;;;;;;;6.38;4.72;;;18.40;1.00;;;;;;4794175;29;20104;-89
2022/06/03 02:05:42;;;;;;;7.68;5.38;;;18.40;1.00;;;;;;4817196;29;20034;-89
2022/06/03 02:08:32;;;;;;;5.38;4.85;;;18.50;1.00;;;;;;4816176;29;20527;-89
2022/06/03 02:11:17;;;;;;;6.63;4.85;;;18.40;1.00;;;;;;4803765;29;20176;-89
2022/06/03 02:14:08;;;;;;;9.80;5.50;;;18.40;1.00;;;;;;4802874;29;20108;-89
2022/06/03 02:16:39;;;;;;;5.47;4.97;;;18.30;1.00;;;;;;4856938;29;20089;-88
2022/06/03 02:19:27;;;;;;;5.95;5.35;;;18.30;1.00;;;;;;4844884;29;20518;-89
2022/06/03 02:21:52;;;;;;;9.15;5.78;;;18.40;1.00;;;;;;4856994;29;20052;-89
2022/06/03 02:24:18;;;;;;;6.72;5.65;;;18.40;1.00;;;;;;4874129;29;20041;-88
2022/06/03 02:26:49;;;;;;;9.07;5.80;;;18.30;1.00;;;;;;4926284;29;20163;-89
2022/06/03 02:32:46;;;;;;;7.97;5.80;;;18.30;1.00;;;;;;4956967;28;20523;-88
2022/06/03 02:35:14;;;;;;;8.95;5.45;;;18.30;1.00;;;;;;4950328;28;20514;-88
2022/06/03 02:38:17;;;;;;;10.45;5.50;;;18.30;1.00;;;;;;4966134;28;20023;-89
2022/06/03 02:41:10;;;;;;;7.97;5.30;;;18.30;1.00;;;;;;4963207;28;20041;-88
2022/06/03 02:43:57;;;;;;;7.82;5.55;;;18.30;1.00;;;;;;4965692;28;20027;-88
2022/06/03 02:46:59;;;;;;;12.13;6.13;;;18.20;1.00;;;;;;4958406;28;20396;-89
2022/06/03 02:49:56;;;;;;;9.57;6.07;;;18.10;1.00;;;;;;4959739;28;20391;-89
2022/06/03 02:52:27;;;;;;;6.20;5.50;;;18.10;1.00;;;;;;4962993;28;20571;-88
2022/06/03 02:55:14;;;;;;;6.38;4.97;;;18.20;1.00;;;;;;4957884;28;20035;-89
2022/06/03 02:58:20;;;;;;;10.27;5.63;;;18.20;1.00;;;;;;4939514;28;20408;-89
2022/06/03 03:01:16;;;;;;;8.90;5.47;;;18.20;1.00;;;;;;4970627;28;20460;-89
2022/06/03 03:03:51;;;;;;;8.40;5.57;;;18.20;1.00;;;;;;4942311;28;20030;-89
2022/06/03 03:06:17;;;;;;;6.38;5.55;;;18.10;1.00;;;;;;4964736;28;20037;-88
2022/06/03 03:09:02;;;;;;;10.32;5.78;;;18.10;1.00;;;;;;4955657;28;20039;-89
2022/06/03 03:12:16;;;;;;;7.47;5.55;;;18.10;1.00;;;;;;4946360;28;20452;-88
2022/06/03 03:14:48;;;;;;;11.07;5.57;;;18.10;1.00;;;;;;4935785;28;20047;-89
2022/06/03 03:17:42;;;;;;;7.93;5.43;;;18.20;1.00;;;;;;4954451;28;20027;-89
2022/06/03 03:20:29;;;;;;;9.57;5.97;;;18.20;1.00;;;;;;4965248;28;20050;-89
2022/06/03 03:23:19;;;;;;;7.40;5.45;;;18.30;1.00;;;;;;4947082;29;20512;-89
2022/06/03 03:26:14;;;;;;;8.70;5.10;;;18.30;1.00;;;;;;4942208;28;20114;-89
2022/06/03 03:29:14;;;;;;;6.32;5.40;;;18.30;1.00;;;;;;4941073;29;20654;-89
2022/06/03 03:32:06;;;;;;;6.95;5.03;;;18.30;1.00;;;;;;4856965;29;20038;-89
2022/06/03 03:35:08;;;;;;;6.88;5.10;;;18.30;1.00;;;;;;4850487;29;20069;-87
2022/06/03 03:38:05;;;;;;;7.07;5.20;;;18.30;1.00;;;;;;4878150;29;20108;-88
2022/06/03 03:40:50;;;;;;;7.32;5.70;;;18.30;1.00;;;;;;4877877;29;20063;-88
2022/06/03 03:43:42;;;;;;;10.50;5.18;;;18.30;1.00;;;;;;4877838;29;20045;-89
2022/06/03 03:46:13;;;;;;;6.80;4.93;;;18.30;1.00;;;;;;4877489;29;20509;-88
2022/06/03 03:48:57;;;;;;;7.15;4.90;;;18.20;1.00;;;;;;4877905;29;20119;-88
2022/06/03 03:51:59;;;;;;;10.68;4.78;;;18.30;1.00;;;;;;4861938;29;20040;-89
2022/06/03 03:55:02;;;;;;;7.30;4.72;;;18.30;1.00;;;;;;4877627;29;20059;-89
2022/06/03 03:58:09;;;;;;;6.72;4.50;;;18.40;1.00;;;;;;4868782;29;20037;-88
2022/06/03 04:00:41;;;;;;;6.25;4.72;;;18.40;1.00;;;;;;4847722;29;20067;-88
2022/06/03 04:04:00;;;;;;;4.95;4.40;;;18.30;1.00;;;;;;4877830;29;20025;-88
2022/06/03 04:06:50;;;;;;;5.70;4.90;;;18.30;1.00;;;;;;4849726;29;20124;-89
2022/06/03 04:09:41;;;;;;;5.50;4.93;;;18.30;1.00;;;;;;4892561;29;20044;-89
2022/06/03 04:12:44;;;;;;;7.43;4.60;;;18.30;1.00;;;;;;4893583;29;20059;-88
2022/06/03 04:15:34;;;;;;;6.72;4.63;;;18.30;1.00;;;;;;4875513;29;20083;-88
2022/06/03 04:18:28;;;;;;;7.25;4.43;;;18.30;1.00;;;;;;4892854;29;20059;-88
2022/06/03 04:21:28;;;;;;;5.63;4.60;;;18.30;1.00;;;;;;4887209;29;20028;-89
2022/06/03 04:24:24;;;;;;;5.72;4.50;;;18.30;1.00;;;;;;4889570;29;20053;-88
2022/06/03 04:27:17;;;;;;;7.47;4.15;;;18.40;1.00;;;;;;4880943;29;20033;-88
2022/06/03 04:30:16;;;;;;;5.40;4.53;;;18.40;1.00;;;;;;4884156;29;20041;-88
2022/06/03 04:33:00;;;;;;;6.28;4.93;;;18.50;1.00;;;;;;4880971;29;20040;-88
2022/06/03 04:36:02;;;;;;;11.43;4.90;;;18.50;1.00;;;;;;4883408;29;20040;-88
2022/06/03 04:39:05;;;;;;;7.53;4.50;;;18.60;1.00;;;;;;4865721;29;20031;-88
2022/06/03 04:42:10;;;;;;;6.07;4.85;;;18.60;1.00;;;;;;4887373;29;20037;-89
2022/06/03 04:45:03;;;;;;;9.10;5.10;;;18.70;1.00;;;;;;4861137;29;20052;-88
2022/06/03 04:48:04;;;;;;;5.57;4.55;;;18.80;1.00;;;;;;4858335;29;20081;-88
2022/06/03 04:50:39;;;;;;;8.75;4.72;;;18.80;1.00;;;;;;4855783;29;20037;-88
2022/06/03 04:53:23;;;;;;;4.82;4.40;;;18.90;1.00;;;;;;4841338;29;20086;-89
2022/06/03 04:56:23;;;;;;;8.30;4.75;;;19.00;1.00;;;;;;4857819;29;20491;-89
2022/06/03 04:59:08;;;;;;;6.10;4.60;;;19.10;1.00;;;;;;4847830;29;20068;-89
2022/06/03 05:02:09;;;;;;;6.47;4.43;;;19.20;1.00;;;;;;4848348;29;20140;-88
2022/06/03 05:05:06;;;;;;;6.63;4.72;;;19.20;1.00;;;;;;4841893;29;20041;-88
2022/06/03 05:07:40;;;;;;;5.65;4.95;;;19.30;1.00;;;;;;4858495;29;20030;-89
2022/06/03 05:10:24;;;;;;;7.38;4.88;;;19.30;1.00;;;;;;4840205;29;20120;-88
2022/06/03 05:13:29;;;;;;;6.63;4.63;;;19.40;1.00;;;;;;4858358;29;20026;-88
2022/06/03 05:16:19;;;;;;;4.80;4.05;;;19.40;1.00;;;;;;4867311;29;20084;-89
2022/06/03 05:18:50;;;;;;;5.30;4.75;;;19.40;1.00;;;;;;4858211;29;20486;-88
2022/06/03 05:21:41;;;;;;;9.63;4.70;;;19.50;1.00;;;;;;4892211;29;20132;-89
2022/06/03 05:24:31;;;;;;;4.72;4.30;;;19.50;1.00;;;;;;4964183;28;20046;-88
2022/06/03 05:27:27;;;;;;;6.18;4.18;;;19.60;1.00;;;;;;4953223;29;20119;-88
2022/06/03 05:29:56;;;;;;;5.47;4.22;;;19.70;1.00;;;;;;4952280;28;20038;-88
2022/06/03 05:32:41;;;;;;;8.02;4.55;;;19.80;1.00;;;;;;4956982;28;20467;-88
2022/06/03 05:35:15;;;;;;;5.15;4.38;;;19.80;1.00;;;;;;4956953;28;20047;-88
2022/06/03 05:37:59;;;;;;;13.02;4.95;;;19.90;1.00;;;;;;4958031;28;20066;-91
2022/06/03 05:40:58;;;;;;;13.57;5.28;;;19.90;1.00;;;;;;4965187;28;20023;-89
2022/06/03 05:43:54;;;;;;;8.45;5.38;;;19.90;1.00;;;;;;4956456;28;20114;-89
2022/06/03 05:46:41;;;;;;;7.57;5.13;;;19.90;1.00;;;;;;4937040;28;20035;-88
2022/06/03 05:49:16;;;;;;;10.45;4.97;;;20.00;1.00;;;;;;4966427;28;20085;-88
2022/06/03 05:51:57;;;;;;;12.85;4.70;;;20.10;1.00;;;;;;4921332;28;20028;-88
2022/06/03 05:54:31;;;;;;;9.20;4.15;;;20.40;1.00;;;;;;4967025;28;20154;-88
2022/06/03 05:57:18;;;;;;;22.15;5.75;;;20.60;1.00;;;;;;4958250;28;20498;-89
2022/06/03 05:59:53;;;;;;;9.55;4.38;;;20.70;1.00;;;;;;4958167;28;20027;-89
2022/06/03 06:02:32;;;;;;;12.90;4.80;;;20.80;1.00;;;;;;4939626;29;20036;-88
2022/06/03 06:05:22;;;;;;;7.15;4.57;;;20.90;1.00;;;;;;4954920;28;20388;-88
2022/06/03 06:08:10;;;;;;;8.95;4.78;;;21.10;1.00;;;;;;4953974;28;20524;-88
2022/06/03 06:10:55;;;;;;;8.55;4.63;;;21.20;1.00;;;;;;4945112;28;20038;-89
2022/06/03 06:13:58;;;;;;;5.78;5.20;;;21.30;1.00;;;;;;4941167;28;20034;-89
2022/06/03 06:16:42;;;;;;;10.85;4.90;;;21.50;1.00;;;;;;4959842;28;20045;-89
2022/06/03 06:19:14;;;;;;;6.65;4.57;;;21.40;1.00;;;;;;4960412;28;20022;-89
2022/06/03 06:21:48;;;;;;;8.35;5.80;;;21.50;1.00;;;;;;4955756;28;20508;-88
2022/06/03 06:24:24;;;;;;;9.45;5.63;;;21.40;1.00;;;;;;4956626;28;20090;-88
2022/06/03 06:27:06;;;;;;;9.18;6.30;;;21.40;1.00;;;;;;4959894;28;20034;-88
2022/06/03 06:29:43;;;;;;;8.98;5.72;;;21.50;1.00;;;;;;4959567;28;20043;-88
2022/06/03 06:32:36;;;;;;;6.60;5.07;;;21.60;1.00;;;;;;4959714;28;20024;-88
2022/06/03 06:35:11;;;;;;;18.65;5.65;;;21.80;1.00;;;;;;4954383;28;20031;-87
2022/06/03 06:37:48;;;;;;;11.98;5.13;;;22.00;1.00;;;;;;4951201;29;20038;-88
2022/06/03 06:40:25;;;;;;;10.38;5.78;;;21.70;1.00;;;;;;4957974;28;20348;-88
2022/06/03 06:43:32;;;;;;;10.98;5.45;;;22.00;1.00;;;;;;4957135;28;20119;-88
2022/06/03 06:46:33;;;;;;;15.75;6.47;;;22.10;1.00;;;;;;4946285;28;20114;-88
2022/06/03 06:49:30;;;;;;;12.90;7.03;;;22.20;1.00;;;;;;4945125;28;20023;-88
2022/06/03 06:52:09;;;;;;;12.05;7.47;;;22.20;1.00;;;;;;4944408;28;20111;-88
2022/06/03 06:54:46;;;;;;;8.82;6.40;;;22.10;1.00;;;;;;4969636;28;20039;-88
2022/06/03 06:57:37;;;;;;;11.57;6.15;;;22.30;1.00;;;;;;4951856;28;20035;-88
2022/06/03 07:00:17;;;;;;;13.10;5.60;;;22.30;1.00;;;;;;4968633;28;20384;-89
2022/06/03 07:03:09;;;;;;;12.07;5.82;;;22.50;1.00;;;;;;4961051;28;20031;-89
2022/06/03 07:05:51;;;;;;;9.55;5.78;;;22.60;1.00;;;;;;4966184;28;20069;-89
2022/06/03 07:08:22;;;;;;;7.97;5.93;;;22.70;1.00;;;;;;4949091;28;20035;-89
2022/06/03 07:11:12;;;;;;;10.82;6.20;;;22.90;1.00;;;;;;4964444;28;20396;-89
2022/06/03 07:13:48;;;;;;;8.30;6.50;;;23.00;1.00;;;;;;4940865;29;20086;-89
2022/06/03 07:22:24;;;;;;;9.73;6.10;;;23.10;1.00;;;;;;4955122;28;20412;-88
2022/06/03 07:24:58;;;;;;;10.18;6.57;;;23.00;1.00;;;;;;4949105;28;20026;-88
2022/06/03 07:27:44;;;;;;;7.63;5.78;;;23.00;1.00;;;;;;4955841;28;20027;-89
2022/06/03 07:30:17;;;;;;;10.93;6.20;;;23.00;99.90;;;;;;4937892;29;20032;-89
2022/06/03 07:32:52;;;;;;;11.98;6.82;;;23.20;1.00;;;;;;4962630;28;20038;-89
2022/06/03 07:35:41;;;;;;;7.53;6.07;;;23.30;1.00;;;;;;4949513;28;20039;-89
2022/06/03 07:38:15;;;;;;;13.10;7.05;;;23.50;1.00;;;;;;4945480;28;20023;-89
2022/06/03 07:40:53;;;;;;;7.45;6.65;;;23.50;99.90;;;;;;4962187;28;20042;-88
2022/06/03 07:43:38;;;;;;;8.93;6.38;;;23.40;1.00;;;;;;4949849;28;20030;-89
2022/06/03 07:46:27;;;;;;;13.25;6.18;;;23.30;1.00;;;;;;4969776;28;20447;-89
2022/06/03 07:48:53;;;;;;;8.32;6.55;;;23.40;1.00;;;;;;4940679;28;20031;-88
2022/06/03 07:51:36;;;;;;;13.65;6.93;;;23.60;99.90;;;;;;4957237;28;20105;-88
2022/06/03 07:54:06;;;;;;;8.18;6.75;;;23.80;1.00;;;;;;4949548;28;20034;-89
2022/06/03 07:56:35;;;;;;;11.15;6.80;;;24.10;99.90;;;;;;4953546;28;20090;-89
2022/06/03 07:59:05;;;;;;;10.27;7.60;;;24.30;99.90;;;;;;4951143;28;20039;-89
2022/06/03 08:01:35;;;;;;;13.70;7.90;;;24.20;99.90;;;;;;4958899;28;20428;-88
2022/06/03 08:04:02;;;;;;;10.88;7.20;;;24.40;99.90;;;;;;4935803;29;20034;-88
2022/06/03 08:12:14;;;;;;;10.27;6.30;;;24.90;99.90;;;;;;4968018;28;20564;-89
2022/06/03 08:14:40;;;;;;;10.35;7.38;;;25.10;99.90;;;;;;4966882;28;20411;-88
2022/06/03 08:17:09;;;;;;;7.47;6.68;;;24.90;99.90;;;;;;4945079;29;20588;-88
2022/06/03 08:19:37;;;;;;;11.18;6.72;;;25.00;99.90;;;;;;4958166;28;20031;-88
2022/06/03 08:22:08;;;;;;;9.57;6.50;;;25.20;99.90;;;;;;4968625;28;20043;-88
2022/06/03 08:24:38;;;;;;;10.30;7.35;;;25.40;99.90;;;;;;4921189;29;20028;-87
2022/06/03 08:27:14;;;;;;;11.77;7.07;;;25.10;99.90;;;;;;4966677;28;20034;-88
2022/06/03 08:29:43;;;;;;;10.32;8.25;;;25.20;99.90;;;;;;4953044;29;20027;-88
2022/06/03 08:32:21;;;;;;;8.73;7.45;;;25.10;99.90;;;;;;4949963;28;20046;-88
2022/06/03 08:34:50;;;;;;;11.13;7.97;;;24.70;99.90;;;;;;4953094;28;20088;-88
2022/06/03 08:37:32;;;;;;;10.43;7.95;;;24.60;99.90;;;;;;4955348;28;20019;-88
2022/06/03 08:40:02;;;;;;;10.75;8.82;;;24.50;99.90;;;;;;4956414;28;20030;-88
2022/06/03 08:42:31;;;;;;;10.32;8.15;;;24.60;99.90;;;;;;4957769;28;20111;-88
2022/06/03 08:45:05;;;;;;;11.88;8.07;;;24.60;99.90;;;;;;4959056;28;20042;-88
2022/06/03 08:47:56;;;;;;;14.95;8.70;;;25.10;99.90;;;;;;4957661;28;20043;-88
2022/06/03 08:50:39;;;;;;;12.68;8.13;;;25.60;99.90;;;;;;4956424;28;20027;-88
2022/06/03 08:53:12;;;;;;;11.38;7.78;;;25.80;99.90;;;;;;4940699;29;20046;-88
2022/06/03 08:55:56;;;;;;;15.95;8.95;;;25.90;99.90;;;;;;4943905;28;20137;-89
2022/06/03 08:58:33;;;;;;;11.73;8.63;;;25.50;99.90;;;;;;4961520;28;20025;-88
2022/06/03 09:01:09;;;;;;;14.30;7.90;;;24.90;99.90;;;;;;4968211;28;20028;-89
2022/06/03 09:03:45;;;;;;;13.07;8.18;;;24.80;99.90;;;;;;4936736;29;20032;-88
2022/06/03 09:06:26;;;;;;;9.77;7.25;;;24.70;99.90;;;;;;4956292;28;20053;-88
2022/06/03 09:08:56;;;;;;;11.48;7.38;;;24.50;99.90;;;;;;4952338;29;20042;-88
2022/06/03 09:11:35;;;;;;;13.43;7.28;;;24.70;99.90;;;;;;4960534;28;20475;-88
2022/06/03 09:14:05;;;;;;;7.78;6.45;;;25.10;99.90;;;;;;4958637;28;20034;-88
2022/06/03 09:16:33;;;;;;;10.20;6.10;;;25.40;99.90;;;;;;4932930;29;20047;-88
2022/06/03 09:19:05;;;;;;;9.65;6.30;;;25.80;99.90;;;;;;4955593;28;20069;-88
2022/06/03 09:21:35;;;;;;;8.38;5.55;;;26.00;99.90;;;;;;4952541;28;20047;-87
2022/06/03 09:24:12;;;;;;;7.47;5.80;;;25.90;99.90;;;;;;4962762;28;20423;-88
2022/06/03 09:26:59;;;;;;;9.57;5.57;;;25.90;99.90;;;;;;4939482;29;20027;-88
2022/06/03 09:29:26;;;;;;;7.32;5.07;;;26.30;99.90;;;;;;4963002;28;20547;-88
2022/06/03 09:31:57;;;;;;;8.27;4.75;;;26.70;99.90;;;;;;4961294;28;20090;-87
2022/06/03 09:34:47;;;;;;;6.72;4.93;;;26.60;99.90;;;;;;4954745;28;20495;-88
2022/06/03 09:37:17;;;;;;;7.18;4.72;;;27.20;99.90;;;;;;4954857;28;20039;-87
2022/06/03 09:39:44;;;;;;;8.35;4.40;;;27.80;99.90;;;;;;4951875;28;20035;-88
2022/06/03 09:42:12;;;;;;;6.68;4.68;;;27.80;99.90;;;;;;4971983;28;20506;-88
2022/06/03 09:44:39;;;;;;;8.90;4.18;;;27.00;99.90;;;;;;4940943;28;20036;-87
2022/06/03 09:47:07;;;;;;;4.97;3.88;;;26.70;99.90;;;;;;4963755;28;20121;-87
2022/06/03 09:49:33;;;;;;;5.28;4.28;;;26.70;99.90;;;;;;4948914;29;20483;-87
2022/06/03 09:52:01;;;;;;;6.15;3.95;;;27.10;99.90;;;;;;4957841;28;20050;-87
2022/06/03 09:54:29;;;;;;;6.45;4.28;;;27.00;99.90;;;;;;4956546;28;20046;-87
2022/06/03 09:57:06;;;;;;;6.70;4.30;;;26.80;99.90;;;;;;4956373;28;20034;-87
2022/06/03 09:59:35;;;;;;;6.35;4.40;;;26.70;99.90;;;;;;4959417;28;20035;-86
2022/06/03 10:02:00;;;;;;;7.55;4.10;;;26.40;99.90;;;;;;4958446;28;20035;-87
2022/06/03 10:04:26;;;;;;;8.25;4.25;;;26.60;99.90;;;;;;4959490;28;20452;-87
2022/06/03 10:06:53;;;;;;;5.70;3.67;;;27.20;99.90;;;;;;4959933;28;20619;-87
2022/06/03 10:17:46;;;;;;;6.32;4.30;;;28.60;99.90;;;;;;4961820;28;20050;-90
2022/06/03 10:20:12;;;;;;;6.65;4.40;;;28.00;99.90;;;;;;4960530;28;20493;-85
2022/06/03 10:22:37;;;;;;;5.53;3.80;;;27.70;99.90;;;;;;4960061;28;20083;-85
2022/06/03 10:25:05;;;;;;;6.82;4.40;;;27.50;99.90;;;;;;4960248;28;20089;-85
2022/06/03 10:27:31;;;;;;;5.00;4.15;;;27.20;99.90;;;;;;4956300;28;20027;-88
2022/06/03 10:29:59;;;;;;;10.88;4.60;;;27.20;99.90;;;;;;4956111;29;20551;-87
2022/06/03 10:32:25;;;;;;;6.10;4.28;;;27.10;99.90;;;;;;4943384;29;20461;-88
2022/06/03 10:34:56;;;;;;;8.63;4.65;;;27.20;99.90;;;;;;4960896;28;20067;-89
2022/06/03 10:37:25;;;;;;;4.80;4.30;;;27.10;99.90;;;;;;4943748;28;20127;-88
2022/06/03 10:39:55;;;;;;;6.78;4.00;;;27.10;99.90;;;;;;4941115;28;20035;-88
2022/06/03 10:42:23;;;;;;;4.93;4.30;;;26.90;99.90;;;;;;4957990;28;20031;-96
2022/06/03 10:44:55;;;;;;;6.05;4.38;;;27.20;99.90;;;;;;4944482;29;20035;-91
2022/06/03 10:47:43;;;;;;;5.93;4.28;;;27.60;99.90;;;;;;4947156;29;20030;-88
2022/06/03 10:50:33;;;;;;;4.90;4.43;;;28.70;99.90;;;;;;4961459;28;20036;-90
2022/06/03 11:01:41;;;;;;;6.20;3.80;;;29.20;99.90;;;;;;4960254;28;20046;-86
2022/06/03 11:04:22;;;;;;;5.65;3.58;;;29.50;99.90;;;;;;4960269;28;20081;-89
2022/06/03 11:06:48;;;;;;;5.47;3.80;;;30.00;99.90;;;;;;4940496;28;20028;-89
2022/06/03 11:09:15;;;;;;;6.13;3.53;;;30.00;99.90;;;;;;4941589;29;20400;-89
2022/06/03 11:11:47;;;;;;;6.40;3.80;;;30.10;99.90;;;;;;4960676;28;20046;-89
2022/06/03 11:14:48;;;;;;;8.18;4.30;;;29.70;99.90;;;;;;4942940;29;20412;-89
2022/06/03 11:17:18;;;;;;;8.00;3.72;;;29.90;99.90;;;;;;4892288;29;20099;-89
2022/06/03 11:19:56;;;;;;;5.97;3.63;;;30.00;99.90;;;;;;4892631;29;20531;-89
2022/06/03 11:22:29;;;;;;;10.80;4.07;;;29.90;99.90;;;;;;4892245;29;20053;-89
2022/06/03 11:25:17;;;;;;;6.32;3.88;;;29.10;99.90;;;;;;4896656;29;20037;-89
2022/06/03 11:27:50;;;;;;;4.28;3.67;;;28.40;99.90;;;;;;4867446;29;20048;-89
2022/06/03 11:30:22;;;;;;;9.75;3.65;;;28.40;99.90;;;;;;4897003;29;20577;-89
2022/06/03 11:32:51;;;;;;;11.07;4.00;;;28.50;99.90;;;;;;4895448;29;20056;-90
2022/06/03 11:35:33;;;;;;;8.32;3.67;;;28.80;99.90;;;;;;4872201;29;20040;-89
2022/06/03 11:38:03;;;;;;;6.88;3.35;;;28.90;99.90;;;;;;4892661;29;20486;-89
2022/06/03 11:40:34;;;;;;;9.85;3.50;;;28.90;99.90;;;;;;4880849;29;20032;-89
2022/06/03 11:43:09;;;;;;;6.63;3.95;;;29.20;99.90;;;;;;4893494;29;20522;-89
2022/06/03 11:45:56;;;;;;;7.18;3.55;;;29.50;99.90;;;;;;4896682;29;20044;-89
2022/06/03 11:48:32;;;;;;;6.30;3.55;;;29.90;99.90;;;;;;4879749;29;20123;-89
2022/06/03 11:50:59;;;;;;;9.07;3.65;;;30.60;99.90;;;;;;4890244;29;20044;-89
2022/06/03 11:53:30;;;;;;;7.07;3.47;;;31.90;99.90;;;;;;4958983;28;20034;-89
2022/06/03 11:56:02;;;;;;;7.15;3.42;;;35.00;99.90;;;;;;4959474;28;20059;-89
2022/06/03 11:58:55;;;;;;;7.25;3.60;;;34.90;99.90;;;;;;4959567;28;20031;-89
2022/06/03 12:01:33;;;;;;;5.85;2.88;;;36.30;99.90;;;;;;4941810;28;20031;-89
2022/06/03 12:04:11;;;;;;;6.85;3.33;;;33.80;99.90;;;;;;4958299;28;20531;-89
2022/06/03 12:06:46;;;;;;;11.98;3.38;;;36.50;99.90;;;;;;4940233;28;20035;-90
2022/06/03 12:09:45;;;;;;;9.63;3.50;;;37.70;99.90;;;;;;4940242;29;20034;-89
2022/06/03 12:15:33;;;;;;;6.70;3.30;;;36.80;99.90;;;;;;4969097;28;20050;-90
2022/06/03 12:18:31;;;;;;;7.78;3.30;;;37.30;99.90;;;;;;4954223;29;20034;-89
2022/06/03 12:20:58;;;;;;;5.45;3.17;;;38.80;99.90;;;;;;4877746;29;20072;-89
2022/06/03 12:23:23;;;;;;;11.70;3.50;;;38.10;99.90;;;;;;4876781;29;20609;-90
2022/06/03 12:25:51;;;;;;;8.00;3.20;;;37.60;99.90;;;;;;4877014;29;20037;-89
2022/06/03 12:28:45;;;;;;;6.28;3.55;;;37.90;99.90;;;;;;4875781;29;20032;-89
2022/06/03 12:31:19;;;;;;;10.40;3.60;;;38.10;99.90;;;;;;4851055;29;20072;-89
2022/06/03 12:34:05;;;;;;;6.75;3.58;;;38.60;99.90;;;;;;4876969;29;20492;-89
2022/06/03 12:36:34;;;;;;;4.75;3.00;;;38.40;99.90;;;;;;4858281;29;20049;-89
2022/06/03 12:39:07;;;;;;;9.52;3.60;;;38.60;99.90;;;;;;4877354;29;20063;-90
2022/06/03 12:41:44;;;;;;;10.27;3.40;;;39.00;99.90;;;;;;4877191;29;20033;-90
2022/06/03 12:44:32;;;;;;;7.25;3.30;;;39.00;99.90;;;;;;4868248;29;20045;-90
2022/06/03 12:47:28;;;;;;;7.82;3.42;;;37.90;99.90;;;;;;4866163;29;20022;-89
2022/06/03 12:50:23;;;;;;;8.18;3.60;;;38.00;99.90;;;;;;4871998;29;20048;-90
2022/06/03 12:52:49;;;;;;;9.75;3.30;;;39.50;99.90;;;;;;4876735;29;20073;-90
2022/06/03 12:55:15;;;;;;;9.38;3.35;;;38.80;99.90;;;;;;4876517;29;20033;-90
2022/06/03 12:57:43;;;;;;;8.20;3.83;;;40.20;99.90;;;;;;4910604;28;20036;-90
2022/06/03 13:00:15;;;;;;;6.20;3.35;;;40.30;99.90;;;;;;4957265;28;20050;-90
2022/06/03 13:02:55;;;;;;;5.05;3.17;;;39.00;99.90;;;;;;4953447;29;20032;-90
2022/06/03 13:05:37;;;;;;;8.73;3.47;;;39.40;99.90;;;;;;4958508;28;20038;-90
2022/06/03 13:08:23;;;;;;;7.45;3.30;;;39.40;99.90;;;;;;4958910;28;20038;-89
2022/06/03 13:11:08;;;;;;;7.38;3.45;;;38.90;99.90;;;;;;4958390;28;20023;-90
2022/06/03 13:13:33;;;;;;;8.98;3.63;;;38.80;99.90;;;;;;4957669;28;20118;-90
2022/06/03 13:16:17;;;;;;;9.13;3.50;;;38.50;99.90;;;;;;4956874;28;20106;-90
2022/06/03 13:18:55;;;;;;;8.02;3.33;;;39.20;99.90;;;;;;4937640;28;20035;-89
2022/06/03 13:21:45;;;;;;;7.50;3.50;;;39.90;99.90;;;;;;4955552;28;20067;-90
2022/06/03 13:24:41;;;;;;;8.55;3.50;;;40.00;99.90;;;;;;4949406;29;20523;-90
2022/06/03 13:27:10;;;;;;;10.35;4.20;;;38.70;99.90;;;;;;4918003;29;20039;-89
2022/06/03 13:29:55;;;;;;;10.38;3.70;;;37.10;99.90;;;;;;4955782;28;20035;-90
2022/06/03 13:32:37;;;;;;;8.45;3.53;;;37.20;99.90;;;;;;4952371;29;20031;-90
2022/06/03 13:35:40;;;;;;;8.73;3.92;;;38.10;99.90;;;;;;4952100;29;20028;-91
2022/06/03 13:38:11;;;;;;;5.72;3.40;;;38.00;99.90;;;;;;4948392;28;20046;-90
2022/06/03 13:40:38;;;;;;;9.00;3.78;;;37.70;99.90;;;;;;4940469;28;20054;-90
2022/06/03 13:43:14;;;;;;;9.38;3.70;;;37.70;99.90;;;;;;4968365;28;20055;-89
2022/06/03 13:46:02;;;;;;;9.45;4.15;;;37.00;99.90;;;;;;4922495;28;20436;-90
2022/06/03 13:48:33;;;;;;;9.10;3.90;;;36.50;99.90;;;;;;4954417;28;20028;-90
2022/06/03 13:51:29;;;;;;;7.47;3.83;;;37.40;99.90;;;;;;4958314;28;20504;-90
2022/06/03 13:54:16;;;;;;;7.25;3.70;;;37.30;99.90;;;;;;4957609;28;20027;-90
2022/06/03 13:56:54;;;;;;;10.73;4.00;;;36.90;99.90;;;;;;4957403;28;20043;-90
2022/06/03 13:59:20;;;;;;;10.43;4.13;;;36.20;99.90;;;;;;4940668;29;20062;-90
2022/06/03 14:01:50;;;;;;;10.52;3.60;;;35.90;99.90;;;;;;4957884;28;20032;-90
2022/06/03 14:04:23;;;;;;;9.48;4.25;;;36.80;99.90;;;;;;4957684;28;20029;-90
2022/06/03 14:07:03;;;;;;;12.95;3.83;;;36.70;99.90;;;;;;4955132;28;20046;-90
2022/06/03 14:09:47;;;;;;;10.10;4.30;;;36.90;99.90;;;;;;4936882;29;20035;-89
2022/06/03 14:12:51;;;;;;;6.93;3.75;;;36.30;99.90;;;;;;4948769;28;20045;-90
2022/06/03 14:15:54;;;;;;;9.82;4.03;;;35.50;99.90;;;;;;4856503;29;20061;-90
2022/06/03 14:19:07;;;;;;;10.68;4.00;;;36.70;99.90;;;;;;4803920;29;20047;-89
2022/06/03 14:21:42;;;;;;;15.20;4.35;;;35.60;99.90;;;;;;4798692;29;20035;-89
2022/06/03 14:24:15;;;;;;;16.33;4.35;;;36.10;99.90;;;;;;4795898;29;20050;-90
2022/06/03 14:26:56;;;;;;;8.85;4.13;;;35.60;99.90;;;;;;4788214;29;20039;-89
2022/06/03 14:29:42;;;;;;;13.32;4.47;;;35.60;99.90;;;;;;4788195;29;20043;-89
2022/06/03 14:32:13;;;;;;;11.50;4.07;;;35.10;99.90;;;;;;4790123;29;20078;-89
2022/06/03 14:34:44;;;;;;;11.93;4.28;;;35.40;99.90;;;;;;4791334;29;20589;-89
2022/06/03 14:37:42;;;;;;;7.65;3.97;;;35.10;99.90;;;;;;4787692;29;20118;-90
2022/06/03 14:40:15;;;;;;;10.20;4.05;;;35.40;99.90;;;;;;4801142;29;20100;-89